PWSweather.com
Personal Weather Stations
Station Observations
WXGLH1124
Southern Oaks, Indianapolis, IN 46217

Southern OaksIndianapolis, IN 46217

Lat: 39.65113, Lon: -86.16866

Elevation: 720

Station Type: Vantage Pro2

High Low Average
Temperature 73.1°F22.8°C 0.0°F-17.8°C 57.5°F14.2°C
Dew Point 62.9°F17.2°C -19.1°F-28.4°C 48.5°F9.2°C
Winds 27.0 mph 43.5 kmh Calm Calm 8.0 mph S12.9 kmh S
Wind Gusts 32.0 mph51.5 kmh -- 14.0 mph22.5 kmh
Humidity 92% 0% 72%
Pressure 29.80 in1009.1 mb 0.00 in0.0 mb -
Precipitation 0.00 in0.0 mm - -
Hour Temp Dew Point Humidity Winds Wind Gusts Pressure Precip Precip Rate Daily Precip Total
12:00 AM 61.1°F16.2°C 42.3°F5.7°C 50% 10.0 mph SSE16.1 kmh SSE 10.0 mph16.1 kmh 29.79 in1008.8 mb 0.00 in0.0 mm 0.00 in0.0 mm 0.00 in0.0 mm
12:05 AM 60.9°F16.1°C 42.7°F5.9°C 51% 6.0 mph SSE9.7 kmh SSE 9.0 mph14.5 kmh 29.79 in1008.8 mb 0.00 in0.0 mm 0.00 in0.0 mm 0.00 in0.0 mm
12:10 AM 60.8°F16.0°C 43.1°F6.2°C 52% 4.0 mph SE6.4 kmh SE 7.0 mph11.3 kmh 29.79 in1008.8 mb 0.00 in0.0 mm 0.00 in0.0 mm 0.00 in0.0 mm
12:15 AM 60.8°F16.0°C 42.6°F5.9°C 51% 3.0 mph SSE4.8 kmh SSE 12.0 mph19.3 kmh 29.79 in1008.8 mb 0.00 in0.0 mm 0.00 in0.0 mm 0.00 in0.0 mm
12:20 AM 61.0°F16.1°C 42.8°F6.0°C 51% 4.0 mph S6.4 kmh S 14.0 mph22.5 kmh 29.79 in1008.8 mb 0.00 in0.0 mm 0.00 in0.0 mm 0.00 in0.0 mm
12:25 AM 61.2°F16.2°C 42.4°F5.8°C 50% 7.0 mph SSE11.3 kmh SSE 10.0 mph16.1 kmh 29.79 in1008.8 mb 0.00 in0.0 mm 0.00 in0.0 mm 0.00 in0.0 mm
12:30 AM 61.3°F16.3°C 42.5°F5.8°C 50% 4.0 mph S6.4 kmh S 10.0 mph16.1 kmh 29.79 in1008.8 mb 0.00 in0.0 mm 0.00 in0.0 mm 0.00 in0.0 mm
12:35 AM 61.4°F16.3°C 42.6°F5.9°C 50% 5.0 mph SW8.0 kmh SW 12.0 mph19.3 kmh 29.79 in1008.8 mb 0.00 in0.0 mm 0.00 in0.0 mm 0.00 in0.0 mm
12:40 AM 61.4°F16.3°C 42.6°F5.9°C 50% 4.0 mph S6.4 kmh S 16.0 mph25.7 kmh 29.78 in1008.5 mb 0.00 in0.0 mm 0.00 in0.0 mm 0.00 in0.0 mm
12:45 AM 61.5°F16.4°C 42.7°F5.9°C 50% 4.0 mph SSE6.4 kmh SSE 15.0 mph24.1 kmh 29.78 in1008.5 mb 0.00 in0.0 mm 0.00 in0.0 mm 0.00 in0.0 mm
12:50 AM 61.5°F16.4°C 42.7°F5.9°C 50% 3.0 mph S4.8 kmh S 9.0 mph14.5 kmh 29.79 in1008.8 mb 0.00 in0.0 mm 0.00 in0.0 mm 0.00 in0.0 mm
12:55 AM 61.6°F16.4°C 42.8°F6.0°C 50% 8.0 mph SSE12.9 kmh SSE 11.0 mph17.7 kmh 29.79 in1008.8 mb 0.00 in0.0 mm 0.00 in0.0 mm 0.00 in0.0 mm
01:00 AM 61.5°F16.4°C 42.7°F5.9°C 50% 9.0 mph SSW14.5 kmh SSW 10.0 mph16.1 kmh 29.79 in1008.8 mb 0.00 in0.0 mm 0.00 in0.0 mm 0.00 in0.0 mm
01:04 AM 61.5°F16.4°C 42.7°F5.9°C 50% 13.0 mph S20.9 kmh S 13.0 mph20.9 kmh 29.79 in1008.8 mb 0.00 in0.0 mm 0.00 in0.0 mm 0.00 in0.0 mm
01:09 AM 61.6°F16.4°C 42.8°F6.0°C 50% 2.0 mph S3.2 kmh S 10.0 mph16.1 kmh 29.79 in1008.8 mb 0.00 in0.0 mm 0.00 in0.0 mm 0.00 in0.0 mm
01:15 AM 61.6°F16.4°C 42.8°F6.0°C 50% 6.0 mph SSE9.7 kmh SSE 8.0 mph12.9 kmh 29.80 in1009.1 mb 0.00 in0.0 mm 0.00 in0.0 mm 0.00 in0.0 mm
01:20 AM 61.5°F16.4°C 43.2°F6.2°C 51% 5.0 mph S8.0 kmh S 7.0 mph11.3 kmh 29.80 in1009.1 mb 0.00 in0.0 mm 0.00 in0.0 mm 0.00 in0.0 mm
01:25 AM 61.5°F16.4°C 42.7°F5.9°C 50% 7.0 mph SSE11.3 kmh SSE 10.0 mph16.1 kmh 29.80 in1009.1 mb 0.00 in0.0 mm 0.00 in0.0 mm 0.00 in0.0 mm
01:30 AM 61.5°F16.4°C 43.2°F6.2°C 51% 2.0 mph SSW3.2 kmh SSW 9.0 mph14.5 kmh 29.80 in1009.1 mb 0.00 in0.0 mm 0.00 in0.0 mm 0.00 in0.0 mm
01:35 AM 61.5°F16.4°C 43.2°F6.2°C 51% 10.0 mph SSE16.1 kmh SSE 10.0 mph16.1 kmh 29.80 in1009.1 mb 0.00 in0.0 mm 0.00 in0.0 mm 0.00 in0.0 mm
01:40 AM 61.4°F16.3°C 43.1°F6.2°C 51% 6.0 mph SSW9.7 kmh SSW 7.0 mph11.3 kmh 29.79 in1008.8 mb 0.00 in0.0 mm 0.00 in0.0 mm 0.00 in0.0 mm
01:44 AM 61.4°F16.3°C 43.1°F6.2°C 51% 2.0 mph SSE3.2 kmh SSE 7.0 mph11.3 kmh 29.78 in1008.5 mb 0.00 in0.0 mm 0.00 in0.0 mm 0.00 in0.0 mm
01:50 AM 61.3°F16.3°C 43.5°F6.4°C 52% 5.0 mph S8.0 kmh S 6.0 mph9.7 kmh 29.78 in1008.5 mb 0.00 in0.0 mm 0.00 in0.0 mm 0.00 in0.0 mm
01:55 AM 61.2°F16.2°C 44.0°F6.7°C 53% 2.0 mph S3.2 kmh S 7.0 mph11.3 kmh 29.79 in1008.8 mb 0.00 in0.0 mm 0.00 in0.0 mm 0.00 in0.0 mm
02:00 AM 60.9°F16.1°C 45.1°F7.3°C 56% 5.0 mph SSE8.0 kmh SSE 9.0 mph14.5 kmh 29.79 in1008.8 mb 0.00 in0.0 mm 0.00 in0.0 mm 0.00 in0.0 mm
02:05 AM 60.4°F15.8°C 45.6°F7.6°C 58% 3.0 mph SSE4.8 kmh SSE 9.0 mph14.5 kmh 29.79 in1008.8 mb 0.00 in0.0 mm 0.00 in0.0 mm 0.00 in0.0 mm
02:09 AM 59.9°F15.5°C 46.0°F7.8°C 60% 1.0 mph S1.6 kmh S 7.0 mph11.3 kmh 29.79 in1008.8 mb 0.00 in0.0 mm 0.00 in0.0 mm 0.00 in0.0 mm
02:15 AM 59.5°F15.3°C 46.1°F7.8°C 61% 6.0 mph SSE9.7 kmh SSE 9.0 mph14.5 kmh 29.79 in1008.8 mb 0.00 in0.0 mm 0.00 in0.0 mm 0.00 in0.0 mm
02:20 AM 59.1°F15.1°C 46.5°F8.1°C 63% 4.0 mph SSE6.4 kmh SSE 10.0 mph16.1 kmh 29.78 in1008.5 mb 0.00 in0.0 mm 0.00 in0.0 mm 0.00 in0.0 mm
02:25 AM 58.5°F14.7°C 47.2°F8.4°C 66% 8.0 mph S12.9 kmh S 15.0 mph24.1 kmh 29.77 in1008.1 mb 0.00 in0.0 mm 0.00 in0.0 mm 0.00 in0.0 mm
02:29 AM 58.2°F14.6°C 47.3°F8.5°C 67% 5.0 mph SSW8.0 kmh SSW 15.0 mph24.1 kmh 29.77 in1008.1 mb 0.01 in0.3 mm 0.15 in3.8 mm 0.01 in0.3 mm
02:35 AM 58.1°F14.5°C 47.2°F8.4°C 67% 4.0 mph SE6.4 kmh SE 12.0 mph19.3 kmh 29.76 in1007.8 mb 0.01 in0.3 mm 0.00 in0.0 mm 0.01 in0.3 mm
02:40 AM 58.2°F14.6°C 47.7°F8.7°C 68% 10.0 mph SSE16.1 kmh SSE 15.0 mph24.1 kmh 29.75 in1007.5 mb 0.01 in0.3 mm 0.00 in0.0 mm 0.01 in0.3 mm
02:45 AM 58.3°F14.6°C 48.2°F9.0°C 69% 7.0 mph S11.3 kmh S 14.0 mph22.5 kmh 29.75 in1007.5 mb 0.01 in0.3 mm 0.00 in0.0 mm 0.01 in0.3 mm
02:50 AM 58.3°F14.6°C 48.2°F9.0°C 69% 9.0 mph SSE14.5 kmh SSE 16.0 mph25.7 kmh 29.75 in1007.5 mb 0.01 in0.3 mm 0.00 in0.0 mm 0.01 in0.3 mm
02:55 AM 58.4°F14.7°C 48.3°F9.1°C 69% 10.0 mph S16.1 kmh S 15.0 mph24.1 kmh 29.75 in1007.5 mb 0.01 in0.3 mm 0.00 in0.0 mm 0.01 in0.3 mm
03:00 AM 58.4°F14.7°C 48.3°F9.1°C 69% 8.0 mph S12.9 kmh S 11.0 mph17.7 kmh 29.75 in1007.5 mb 0.01 in0.3 mm 0.00 in0.0 mm 0.01 in0.3 mm
03:05 AM 58.8°F14.9°C 48.7°F9.3°C 69% 5.0 mph S8.0 kmh S 12.0 mph19.3 kmh 29.76 in1007.8 mb 0.01 in0.3 mm 0.00 in0.0 mm 0.01 in0.3 mm
03:09 AM 58.9°F14.9°C 49.2°F9.6°C 70% 11.0 mph SSE17.7 kmh SSE 17.0 mph27.4 kmh 29.76 in1007.8 mb 0.01 in0.3 mm 0.00 in0.0 mm 0.01 in0.3 mm
03:15 AM 58.7°F14.8°C 49.7°F9.8°C 72% 10.0 mph SSW16.1 kmh SSW 13.0 mph20.9 kmh 29.76 in1007.8 mb 0.02 in0.5 mm 0.10 in2.5 mm 0.02 in0.5 mm
03:20 AM 58.5°F14.7°C 49.5°F9.7°C 72% 7.0 mph S11.3 kmh S 14.0 mph22.5 kmh 29.76 in1007.8 mb 0.02 in0.5 mm 0.00 in0.0 mm 0.02 in0.5 mm
03:24 AM 58.5°F14.7°C 49.5°F9.7°C 72% 8.0 mph SSW12.9 kmh SSW 20.0 mph32.2 kmh 29.76 in1007.8 mb 0.02 in0.5 mm 0.00 in0.0 mm 0.02 in0.5 mm
03:29 AM 58.5°F14.7°C 49.5°F9.7°C 72% 9.0 mph S14.5 kmh S 19.0 mph30.6 kmh 29.76 in1007.8 mb 0.02 in0.5 mm 0.00 in0.0 mm 0.02 in0.5 mm
03:34 AM 58.4°F14.7°C 49.8°F9.9°C 73% 12.0 mph SSE19.3 kmh SSE 24.0 mph38.6 kmh 29.75 in1007.5 mb 0.01 in0.3 mm 0.00 in0.0 mm 0.02 in0.5 mm
03:40 AM 58.1°F14.5°C 49.9°F9.9°C 74% 12.0 mph SW19.3 kmh SW 15.0 mph24.1 kmh 29.75 in1007.5 mb 0.01 in0.3 mm 0.00 in0.0 mm 0.02 in0.5 mm
03:45 AM 57.7°F14.3°C 49.8°F9.9°C 75% 7.0 mph S11.3 kmh S 20.0 mph32.2 kmh 29.75 in1007.5 mb 0.01 in0.3 mm 0.00 in0.0 mm 0.02 in0.5 mm
03:50 AM 57.0°F13.9°C 49.9°F9.9°C 77% 18.0 mph SSE29.0 kmh SSE 18.0 mph29.0 kmh 29.75 in1007.5 mb 0.01 in0.3 mm 0.00 in0.0 mm 0.02 in0.5 mm
03:55 AM 56.7°F13.7°C 49.9°F9.9°C 78% 5.0 mph SE8.0 kmh SE 15.0 mph24.1 kmh 29.74 in1007.1 mb 0.01 in0.3 mm 0.00 in0.0 mm 0.02 in0.5 mm
04:00 AM 56.5°F13.6°C 49.7°F9.8°C 78% 8.0 mph SE12.9 kmh SE 18.0 mph29.0 kmh 29.74 in1007.1 mb 0.01 in0.3 mm 0.00 in0.0 mm 0.02 in0.5 mm
04:04 AM 56.5°F13.6°C 49.7°F9.8°C 78% 9.0 mph SSE14.5 kmh SSE 15.0 mph24.1 kmh 29.74 in1007.1 mb 0.01 in0.3 mm 0.00 in0.0 mm 0.02 in0.5 mm
04:10 AM 56.5°F13.6°C 49.7°F9.8°C 78% 12.0 mph SSE19.3 kmh SSE 15.0 mph24.1 kmh 29.74 in1007.1 mb 0.01 in0.3 mm 0.00 in0.0 mm 0.02 in0.5 mm
04:15 AM 56.2°F13.4°C 49.8°F9.9°C 79% 5.0 mph SE8.0 kmh SE 12.0 mph19.3 kmh 29.75 in1007.5 mb 0.01 in0.3 mm 0.00 in0.0 mm 0.02 in0.5 mm
04:20 AM 56.0°F13.3°C 49.9°F9.9°C 80% 17.0 mph SSE27.4 kmh SSE 17.0 mph27.4 kmh 29.75 in1007.5 mb 0.00 in0.0 mm 0.00 in0.0 mm 0.02 in0.5 mm
04:25 AM 55.8°F13.2°C 50.1°F10.1°C 81% 6.0 mph S9.7 kmh S 15.0 mph24.1 kmh 29.75 in1007.5 mb 0.00 in0.0 mm 0.00 in0.0 mm 0.02 in0.5 mm
04:30 AM 55.5°F13.1°C 50.1°F10.1°C 82% 15.0 mph SSE24.1 kmh SSE 15.0 mph24.1 kmh 29.74 in1007.1 mb 0.01 in0.3 mm 0.12 in3.0 mm 0.03 in0.8 mm
04:35 AM 55.3°F12.9°C 49.9°F9.9°C 82% 5.0 mph SSE8.0 kmh SSE 12.0 mph19.3 kmh 29.74 in1007.1 mb 0.01 in0.3 mm 0.00 in0.0 mm 0.03 in0.8 mm
04:40 AM 55.2°F12.9°C 50.1°F10.1°C 83% 5.0 mph SSE8.0 kmh SSE 12.0 mph19.3 kmh 29.74 in1007.1 mb 0.01 in0.3 mm 0.00 in0.0 mm 0.03 in0.8 mm
04:45 AM 55.1°F12.8°C 50.4°F10.2°C 84% 2.0 mph SSE3.2 kmh SSE 9.0 mph14.5 kmh 29.74 in1007.1 mb 0.01 in0.3 mm 0.00 in0.0 mm 0.03 in0.8 mm
04:50 AM 55.0°F12.8°C 50.3°F10.2°C 84% 8.0 mph S12.9 kmh S 12.0 mph19.3 kmh 29.74 in1007.1 mb 0.02 in0.5 mm 0.12 in3.0 mm 0.04 in1.0 mm
04:54 AM 54.9°F12.7°C 50.5°F10.3°C 85% 8.0 mph SSE12.9 kmh SSE 12.0 mph19.3 kmh 29.74 in1007.1 mb 0.02 in0.5 mm 0.00 in0.0 mm 0.04 in1.0 mm
05:00 AM 54.9°F12.7°C 50.5°F10.3°C 85% 3.0 mph S4.8 kmh S 12.0 mph19.3 kmh 29.74 in1007.1 mb 0.02 in0.5 mm 0.00 in0.0 mm 0.04 in1.0 mm
05:05 AM 54.9°F12.7°C 50.5°F10.3°C 85% 7.0 mph SSW11.3 kmh SSW 13.0 mph20.9 kmh 29.73 in1006.8 mb 0.02 in0.5 mm 0.00 in0.0 mm 0.04 in1.0 mm
05:10 AM 54.9°F12.7°C 50.5°F10.3°C 85% 5.0 mph SSE8.0 kmh SSE 10.0 mph16.1 kmh 29.73 in1006.8 mb 0.02 in0.5 mm 0.00 in0.0 mm 0.04 in1.0 mm
05:15 AM 54.9°F12.7°C 50.5°F10.3°C 85% 3.0 mph SSE4.8 kmh SSE 12.0 mph19.3 kmh 29.73 in1006.8 mb 0.02 in0.5 mm 0.00 in0.0 mm 0.04 in1.0 mm
05:20 AM 54.8°F12.7°C 50.4°F10.2°C 85% 3.0 mph SSE4.8 kmh SSE 8.0 mph12.9 kmh 29.73 in1006.8 mb 0.02 in0.5 mm 0.00 in0.0 mm 0.04 in1.0 mm
05:24 AM 54.5°F12.5°C 50.4°F10.2°C 86% 4.0 mph S6.4 kmh S 8.0 mph12.9 kmh 29.73 in1006.8 mb 0.03 in0.8 mm 0.15 in3.8 mm 0.05 in1.3 mm
05:30 AM 54.4°F12.4°C 50.3°F10.2°C 86% 3.0 mph S4.8 kmh S 7.0 mph11.3 kmh 29.74 in1007.1 mb 0.02 in0.5 mm 0.00 in0.0 mm 0.05 in1.3 mm
05:34 AM 54.4°F12.4°C 50.3°F10.2°C 86% 5.0 mph SW8.0 kmh SW 8.0 mph12.9 kmh 29.75 in1007.5 mb 0.03 in0.8 mm 0.15 in3.8 mm 0.06 in1.5 mm
05:40 AM 54.4°F12.4°C 50.6°F10.3°C 87% 5.0 mph WSW8.0 kmh WSW 6.0 mph9.7 kmh 29.76 in1007.8 mb 0.03 in0.8 mm 0.00 in0.0 mm 0.06 in1.5 mm
05:45 AM 54.2°F12.3°C 50.4°F10.2°C 87% 6.0 mph SW9.7 kmh SW 10.0 mph16.1 kmh 29.77 in1008.1 mb 0.03 in0.8 mm 0.00 in0.0 mm 0.06 in1.5 mm
05:50 AM 54.2°F12.3°C 50.4°F10.2°C 87% 2.0 mph SW3.2 kmh SW 5.0 mph8.0 kmh 29.80 in1009.1 mb 0.03 in0.8 mm 0.00 in0.0 mm 0.06 in1.5 mm
05:54 AM 54.1°F12.3°C 50.6°F10.3°C 88% 4.0 mph WSW6.4 kmh WSW 9.0 mph14.5 kmh 29.80 in1009.1 mb 0.03 in0.8 mm 0.00 in0.0 mm 0.06 in1.5 mm
06:00 AM 54.0°F12.2°C 50.8°F10.4°C 89% 3.0 mph SW4.8 kmh SW 7.0 mph11.3 kmh 29.80 in1009.1 mb 0.03 in0.8 mm 0.00 in0.0 mm 0.06 in1.5 mm
06:05 AM 54.0°F12.2°C 50.8°F10.4°C 89% 4.0 mph SSE6.4 kmh SSE 7.0 mph11.3 kmh 29.78 in1008.5 mb 0.04 in1.0 mm 0.12 in3.0 mm 0.07 in1.8 mm
06:10 AM 54.0°F12.2°C 51.1°F10.6°C 90% 5.0 mph SE8.0 kmh SE 7.0 mph11.3 kmh 29.77 in1008.1 mb 0.04 in1.0 mm 0.00 in0.0 mm 0.07 in1.8 mm
06:15 AM 53.9°F12.2°C 51.0°F10.6°C 90% 5.0 mph SE8.0 kmh SE 8.0 mph12.9 kmh 29.77 in1008.1 mb 0.05 in1.3 mm 0.12 in3.0 mm 0.08 in2.0 mm
06:20 AM 53.9°F12.2°C 51.0°F10.6°C 90% 4.0 mph S6.4 kmh S 7.0 mph11.3 kmh 29.77 in1008.1 mb 0.05 in1.3 mm 0.00 in0.0 mm 0.08 in2.0 mm
06:25 AM 54.0°F12.2°C 51.1°F10.6°C 90% 2.0 mph SSE3.2 kmh SSE 10.0 mph16.1 kmh 29.76 in1007.8 mb 0.05 in1.3 mm 0.00 in0.0 mm 0.08 in2.0 mm
06:30 AM 54.1°F12.3°C 51.2°F10.7°C 90% 5.0 mph S8.0 kmh S 8.0 mph12.9 kmh 29.76 in1007.8 mb 0.05 in1.3 mm 0.00 in0.0 mm 0.08 in2.0 mm
06:35 AM 54.2°F12.3°C 51.3°F10.7°C 90% 6.0 mph S9.7 kmh S 7.0 mph11.3 kmh 29.76 in1007.8 mb 0.05 in1.3 mm 0.00 in0.0 mm 0.08 in2.0 mm
06:40 AM 54.2°F12.3°C 51.3°F10.7°C 90% 7.0 mph SSE11.3 kmh SSE 7.0 mph11.3 kmh 29.76 in1007.8 mb 0.04 in1.0 mm 0.00 in0.0 mm 0.08 in2.0 mm
06:45 AM 54.3°F12.4°C 51.4°F10.8°C 90% 3.0 mph SE4.8 kmh SE 10.0 mph16.1 kmh 29.76 in1007.8 mb 0.04 in1.0 mm 0.00 in0.0 mm 0.08 in2.0 mm
06:49 AM 54.4°F12.4°C 51.5°F10.8°C 90% 5.0 mph SSE8.0 kmh SSE 9.0 mph14.5 kmh 29.76 in1007.8 mb 0.04 in1.0 mm 0.00 in0.0 mm 0.08 in2.0 mm
06:55 AM 54.6°F12.6°C 52.0°F11.1°C 91% 5.0 mph SW8.0 kmh SW 9.0 mph14.5 kmh 29.75 in1007.5 mb 0.03 in0.8 mm 0.00 in0.0 mm 0.08 in2.0 mm
07:00 AM 54.9°F12.7°C 52.3°F11.3°C 91% 7.0 mph S11.3 kmh S 9.0 mph14.5 kmh 29.76 in1007.8 mb 0.03 in0.8 mm 0.00 in0.0 mm 0.08 in2.0 mm
07:04 AM 55.2°F12.9°C 52.6°F11.4°C 91% 6.0 mph S9.7 kmh S 15.0 mph24.1 kmh 29.77 in1008.1 mb 0.02 in0.5 mm 0.00 in0.0 mm 0.08 in2.0 mm
07:10 AM 55.6°F13.1°C 53.0°F11.7°C 91% 5.0 mph S8.0 kmh S 14.0 mph22.5 kmh 29.78 in1008.5 mb 0.02 in0.5 mm 0.00 in0.0 mm 0.08 in2.0 mm
07:15 AM 55.8°F13.2°C 52.9°F11.6°C 90% 5.0 mph SSE8.0 kmh SSE 8.0 mph12.9 kmh 29.77 in1008.1 mb 0.02 in0.5 mm 0.00 in0.0 mm 0.08 in2.0 mm
07:19 AM 55.9°F13.3°C 53.0°F11.7°C 90% 5.0 mph SE8.0 kmh SE 10.0 mph16.1 kmh 29.76 in1007.8 mb 0.01 in0.3 mm 0.00 in0.0 mm 0.08 in2.0 mm
07:24 AM 56.0°F13.3°C 53.1°F11.7°C 90% 5.0 mph S8.0 kmh S 8.0 mph12.9 kmh 29.76 in1007.8 mb 0.01 in0.3 mm 0.00 in0.0 mm 0.08 in2.0 mm
07:30 AM 56.1°F13.4°C 53.2°F11.8°C 90% 5.0 mph S8.0 kmh S 10.0 mph16.1 kmh 29.75 in1007.5 mb 0.02 in0.5 mm 0.10 in2.5 mm 0.09 in2.3 mm
07:35 AM 56.0°F13.3°C 53.1°F11.7°C 90% 3.0 mph SE4.8 kmh SE 12.0 mph19.3 kmh 29.71 in1006.1 mb 0.01 in0.3 mm 0.00 in0.0 mm 0.09 in2.3 mm
07:40 AM 55.8°F13.2°C 52.9°F11.6°C 90% Calm Calm 6.0 mph9.7 kmh 29.69 in1005.4 mb 0.02 in0.5 mm 0.12 in3.0 mm 0.10 in2.5 mm
07:44 AM 55.7°F13.2°C 52.8°F11.6°C 90% 6.0 mph SSE9.7 kmh SSE 7.0 mph11.3 kmh 29.69 in1005.4 mb 0.02 in0.5 mm 0.00 in0.0 mm 0.10 in2.5 mm
07:49 AM 55.7°F13.2°C 52.8°F11.6°C 90% 9.0 mph SSE14.5 kmh SSE 12.0 mph19.3 kmh 29.69 in1005.4 mb 0.02 in0.5 mm 0.00 in0.0 mm 0.10 in2.5 mm
07:55 AM 55.7°F13.2°C 52.8°F11.6°C 90% 7.0 mph SSE11.3 kmh SSE 14.0 mph22.5 kmh 29.67 in1004.7 mb 0.02 in0.5 mm 0.00 in0.0 mm 0.10 in2.5 mm
08:00 AM 55.8°F13.2°C 52.9°F11.6°C 90% 8.0 mph SSE12.9 kmh SSE 12.0 mph19.3 kmh 29.67 in1004.7 mb 0.02 in0.5 mm 0.00 in0.0 mm 0.10 in2.5 mm
08:05 AM 55.9°F13.3°C 52.7°F11.5°C 89% 6.0 mph SSE9.7 kmh SSE 16.0 mph25.7 kmh 29.68 in1005.1 mb 0.02 in0.5 mm 0.00 in0.0 mm 0.10 in2.5 mm
08:10 AM 55.9°F13.3°C 52.7°F11.5°C 89% 5.0 mph S8.0 kmh S 15.0 mph24.1 kmh 29.68 in1005.1 mb 0.02 in0.5 mm 0.00 in0.0 mm 0.10 in2.5 mm
08:15 AM 56.0°F13.3°C 52.8°F11.6°C 89% 9.0 mph SSW14.5 kmh SSW 12.0 mph19.3 kmh 29.69 in1005.4 mb 0.02 in0.5 mm 0.00 in0.0 mm 0.10 in2.5 mm
08:19 AM 56.2°F13.4°C 53.0°F11.7°C 89% 9.0 mph SSE14.5 kmh SSE 13.0 mph20.9 kmh 29.70 in1005.8 mb 0.02 in0.5 mm 0.00 in0.0 mm 0.10 in2.5 mm
08:25 AM 56.2°F13.4°C 52.7°F11.5°C 88% 9.0 mph SE14.5 kmh SE 15.0 mph24.1 kmh 29.70 in1005.8 mb 0.02 in0.5 mm 0.00 in0.0 mm 0.10 in2.5 mm
08:30 AM 56.3°F13.5°C 52.8°F11.6°C 88% 5.0 mph SSE8.0 kmh SSE 14.0 mph22.5 kmh 29.70 in1005.8 mb 0.02 in0.5 mm 0.00 in0.0 mm 0.10 in2.5 mm
08:34 AM 56.4°F13.6°C 52.9°F11.6°C 88% 9.0 mph S14.5 kmh S 12.0 mph19.3 kmh 29.71 in1006.1 mb 0.01 in0.3 mm 0.00 in0.0 mm 0.10 in2.5 mm
08:40 AM 56.5°F13.6°C 52.7°F11.5°C 87% 6.0 mph SSE9.7 kmh SSE 13.0 mph20.9 kmh 29.70 in1005.8 mb 0.01 in0.3 mm 0.00 in0.0 mm 0.10 in2.5 mm
08:45 AM 56.5°F13.6°C 52.7°F11.5°C 87% 7.0 mph SSE11.3 kmh SSE 13.0 mph20.9 kmh 29.71 in1006.1 mb 0.00 in0.0 mm 0.00 in0.0 mm 0.10 in2.5 mm
08:50 AM 56.5°F13.6°C 52.7°F11.5°C 87% 9.0 mph SE14.5 kmh SE 17.0 mph27.4 kmh 29.68 in1005.1 mb 0.00 in0.0 mm 0.00 in0.0 mm 0.10 in2.5 mm
08:55 AM 56.3°F13.5°C 52.5°F11.4°C 87% 13.0 mph SSE20.9 kmh SSE 17.0 mph27.4 kmh 29.66 in1004.4 mb 0.00 in0.0 mm 0.00 in0.0 mm 0.10 in2.5 mm
09:00 AM 56.3°F13.5°C 52.5°F11.4°C 87% 12.0 mph S19.3 kmh S 15.0 mph24.1 kmh 29.66 in1004.4 mb 0.00 in0.0 mm 0.00 in0.0 mm 0.10 in2.5 mm
09:05 AM 56.4°F13.6°C 52.6°F11.4°C 87% 11.0 mph SSE17.7 kmh SSE 19.0 mph30.6 kmh 29.68 in1005.1 mb 0.00 in0.0 mm 0.00 in0.0 mm 0.10 in2.5 mm
09:09 AM 56.6°F13.7°C 52.8°F11.6°C 87% 6.0 mph SSE9.7 kmh SSE 17.0 mph27.4 kmh 29.68 in1005.1 mb 0.00 in0.0 mm 0.00 in0.0 mm 0.10 in2.5 mm
09:15 AM 56.5°F13.6°C 52.7°F11.5°C 87% 7.0 mph SSE11.3 kmh SSE 13.0 mph20.9 kmh 29.67 in1004.7 mb 0.00 in0.0 mm 0.00 in0.0 mm 0.10 in2.5 mm
09:20 AM 56.5°F13.6°C 52.7°F11.5°C 87% 8.0 mph SSE12.9 kmh SSE 13.0 mph20.9 kmh 29.67 in1004.7 mb 0.00 in0.0 mm 0.00 in0.0 mm 0.10 in2.5 mm
09:25 AM 56.4°F13.6°C 52.9°F11.6°C 88% 2.0 mph SE3.2 kmh SE 13.0 mph20.9 kmh 29.67 in1004.7 mb 0.00 in0.0 mm 0.00 in0.0 mm 0.10 in2.5 mm
09:30 AM 56.2°F13.4°C 52.7°F11.5°C 88% 11.0 mph SE17.7 kmh SE 11.0 mph17.7 kmh 29.66 in1004.4 mb 0.01 in0.3 mm 0.12 in3.0 mm 0.11 in2.8 mm
09:35 AM 55.9°F13.3°C 52.7°F11.5°C 89% 9.0 mph S14.5 kmh S 12.0 mph19.3 kmh 29.67 in1004.7 mb 0.01 in0.3 mm 0.00 in0.0 mm 0.11 in2.8 mm
09:40 AM 55.8°F13.2°C 52.9°F11.6°C 90% 9.0 mph S14.5 kmh S 13.0 mph20.9 kmh 29.67 in1004.7 mb 0.02 in0.5 mm 0.12 in3.0 mm 0.12 in3.0 mm
09:45 AM 55.8°F13.2°C 52.9°F11.6°C 90% 6.0 mph SSE9.7 kmh SSE 15.0 mph24.1 kmh 29.68 in1005.1 mb 0.02 in0.5 mm 0.00 in0.0 mm 0.12 in3.0 mm
09:50 AM 55.9°F13.3°C 53.0°F11.7°C 90% 6.0 mph SE9.7 kmh SE 13.0 mph20.9 kmh 29.68 in1005.1 mb 0.03 in0.8 mm 0.12 in3.0 mm 0.13 in3.3 mm
09:55 AM 55.8°F13.2°C 53.2°F11.8°C 91% 8.0 mph S12.9 kmh S 11.0 mph17.7 kmh 29.67 in1004.7 mb 0.04 in1.0 mm 0.12 in3.0 mm 0.14 in3.6 mm
10:00 AM 55.7°F13.2°C 53.1°F11.7°C 91% 7.0 mph SSE11.3 kmh SSE 14.0 mph22.5 kmh 29.68 in1005.1 mb 0.04 in1.0 mm 0.00 in0.0 mm 0.14 in3.6 mm
10:05 AM 55.7°F13.2°C 53.1°F11.7°C 91% 13.0 mph S20.9 kmh S 13.0 mph20.9 kmh 29.68 in1005.1 mb 0.05 in1.3 mm 0.12 in3.0 mm 0.15 in3.8 mm
10:10 AM 55.6°F13.1°C 53.0°F11.7°C 91% 10.0 mph SSE16.1 kmh SSE 13.0 mph20.9 kmh 29.68 in1005.1 mb 0.05 in1.3 mm 0.00 in0.0 mm 0.15 in3.8 mm
10:15 AM 55.5°F13.1°C 52.9°F11.6°C 91% 12.0 mph SSE19.3 kmh SSE 14.0 mph22.5 kmh 29.68 in1005.1 mb 0.06 in1.5 mm 0.12 in3.0 mm 0.16 in4.1 mm
10:20 AM 55.5°F13.1°C 52.9°F11.6°C 91% 11.0 mph SE17.7 kmh SE 13.0 mph20.9 kmh 29.67 in1004.7 mb 0.07 in1.8 mm 0.12 in3.0 mm 0.17 in4.3 mm
10:25 AM 55.4°F13.0°C 52.8°F11.6°C 91% 7.0 mph SSW11.3 kmh SSW 13.0 mph20.9 kmh 29.68 in1005.1 mb 0.07 in1.8 mm 0.00 in0.0 mm 0.17 in4.3 mm
10:30 AM 55.4°F13.0°C 52.8°F11.6°C 91% 9.0 mph S14.5 kmh S 14.0 mph22.5 kmh 29.68 in1005.1 mb 0.07 in1.8 mm 0.00 in0.0 mm 0.17 in4.3 mm
10:35 AM 55.3°F12.9°C 53.0°F11.7°C 92% 6.0 mph SSE9.7 kmh SSE 13.0 mph20.9 kmh 29.68 in1005.1 mb 0.07 in1.8 mm 0.00 in0.0 mm 0.17 in4.3 mm
10:40 AM 55.3°F12.9°C 52.7°F11.5°C 91% 15.0 mph S24.1 kmh S 15.0 mph24.1 kmh 29.68 in1005.1 mb 0.07 in1.8 mm 0.00 in0.0 mm 0.17 in4.3 mm
10:45 AM 55.4°F13.0°C 53.1°F11.7°C 92% 7.0 mph SSE11.3 kmh SSE 12.0 mph19.3 kmh 29.68 in1005.1 mb 0.08 in2.0 mm 0.12 in3.0 mm 0.18 in4.6 mm
10:50 AM 55.4°F13.0°C 53.1°F11.7°C 92% 8.0 mph SSE12.9 kmh SSE 14.0 mph22.5 kmh 29.67 in1004.7 mb 0.07 in1.8 mm 0.00 in0.0 mm 0.18 in4.6 mm
10:55 AM 55.5°F13.1°C 53.2°F11.8°C 92% 8.0 mph S12.9 kmh S 16.0 mph25.7 kmh 29.66 in1004.4 mb 0.08 in2.0 mm 0.12 in3.0 mm 0.19 in4.8 mm
10:59 AM 55.6°F13.1°C 53.3°F11.8°C 92% 4.0 mph S6.4 kmh S 14.0 mph22.5 kmh 29.66 in1004.4 mb 0.08 in2.0 mm 0.00 in0.0 mm 0.19 in4.8 mm
11:05 AM 55.6°F13.1°C 53.3°F11.8°C 92% 9.0 mph SSE14.5 kmh SSE 13.0 mph20.9 kmh 29.66 in1004.4 mb 0.08 in2.0 mm 0.00 in0.0 mm 0.19 in4.8 mm
11:09 AM 55.7°F13.2°C 53.4°F11.9°C 92% 10.0 mph SSE16.1 kmh SSE 14.0 mph22.5 kmh 29.65 in1004.1 mb 0.07 in1.8 mm 0.00 in0.0 mm 0.19 in4.8 mm
11:15 AM 55.8°F13.2°C 53.5°F11.9°C 92% 8.0 mph SE12.9 kmh SE 12.0 mph19.3 kmh 29.65 in1004.1 mb 0.07 in1.8 mm 0.00 in0.0 mm 0.19 in4.8 mm
11:20 AM 55.9°F13.3°C 53.6°F12.0°C 92% 6.0 mph S9.7 kmh S 16.0 mph25.7 kmh 29.66 in1004.4 mb 0.07 in1.8 mm 0.00 in0.0 mm 0.19 in4.8 mm
11:24 AM 55.9°F13.3°C 53.6°F12.0°C 92% 7.0 mph SSW11.3 kmh SSW 14.0 mph22.5 kmh 29.66 in1004.4 mb 0.07 in1.8 mm 0.00 in0.0 mm 0.19 in4.8 mm
11:29 AM 55.9°F13.3°C 53.6°F12.0°C 92% 14.0 mph S22.5 kmh S 14.0 mph22.5 kmh 29.67 in1004.7 mb 0.06 in1.5 mm 0.00 in0.0 mm 0.19 in4.8 mm
11:34 AM 56.1°F13.4°C 53.8°F12.1°C 92% 11.0 mph SE17.7 kmh SE 12.0 mph19.3 kmh 29.66 in1004.4 mb 0.06 in1.5 mm 0.00 in0.0 mm 0.19 in4.8 mm
11:40 AM 56.5°F13.6°C 54.2°F12.3°C 92% 5.0 mph S8.0 kmh S 22.0 mph35.4 kmh 29.64 in1003.7 mb 0.06 in1.5 mm 0.00 in0.0 mm 0.19 in4.8 mm
11:45 AM 56.6°F13.7°C 54.3°F12.4°C 92% 10.0 mph S16.1 kmh S 17.0 mph27.4 kmh 29.64 in1003.7 mb 0.05 in1.3 mm 0.00 in0.0 mm 0.19 in4.8 mm
11:49 AM 56.8°F13.8°C 54.5°F12.5°C 92% 10.0 mph SSE16.1 kmh SSE 15.0 mph24.1 kmh 29.64 in1003.7 mb 0.06 in1.5 mm 0.15 in3.8 mm 0.20 in5.1 mm
11:55 AM 56.9°F13.8°C 54.6°F12.6°C 92% 9.0 mph S14.5 kmh S 15.0 mph24.1 kmh 29.63 in1003.4 mb 0.06 in1.5 mm 0.00 in0.0 mm 0.20 in5.1 mm
12:00 PM 57.0°F13.9°C 54.7°F12.6°C 92% 7.0 mph S11.3 kmh S 15.0 mph24.1 kmh 29.62 in1003.0 mb 0.05 in1.3 mm 0.00 in0.0 mm 0.20 in5.1 mm
12:04 PM 57.2°F14.0°C 54.9°F12.7°C 92% 10.0 mph S16.1 kmh S 14.0 mph22.5 kmh 29.62 in1003.0 mb 0.05 in1.3 mm 0.00 in0.0 mm 0.20 in5.1 mm
12:09 PM 57.5°F14.2°C 55.2°F12.9°C 92% 11.0 mph S17.7 kmh S 13.0 mph20.9 kmh 29.62 in1003.0 mb 0.05 in1.3 mm 0.00 in0.0 mm 0.20 in5.1 mm
12:15 PM 58.1°F14.5°C 55.8°F13.2°C 92% 3.0 mph S4.8 kmh S 19.0 mph30.6 kmh 29.61 in1002.7 mb 0.05 in1.3 mm 0.00 in0.0 mm 0.20 in5.1 mm
12:20 PM 58.6°F14.8°C 56.0°F13.3°C 91% 11.0 mph SSE17.7 kmh SSE 14.0 mph22.5 kmh 29.61 in1002.7 mb 0.05 in1.3 mm 0.00 in0.0 mm 0.20 in5.1 mm
12:25 PM 58.9°F14.9°C 56.0°F13.3°C 90% 10.0 mph S16.1 kmh S 20.0 mph32.2 kmh 29.61 in1002.7 mb 0.04 in1.0 mm 0.00 in0.0 mm 0.20 in5.1 mm
12:29 PM 59.0°F15.0°C 56.1°F13.4°C 90% 7.0 mph SSW11.3 kmh SSW 14.0 mph22.5 kmh 29.62 in1003.0 mb 0.04 in1.0 mm 0.00 in0.0 mm 0.20 in5.1 mm
12:35 PM 58.9°F14.9°C 56.0°F13.3°C 90% 6.0 mph S9.7 kmh S 14.0 mph22.5 kmh 29.61 in1002.7 mb 0.04 in1.0 mm 0.00 in0.0 mm 0.20 in5.1 mm
12:40 PM 58.8°F14.9°C 55.9°F13.3°C 90% 6.0 mph S9.7 kmh S 8.0 mph12.9 kmh 29.61 in1002.7 mb 0.04 in1.0 mm 0.00 in0.0 mm 0.20 in5.1 mm
12:45 PM 58.7°F14.8°C 55.8°F13.2°C 90% 4.0 mph S6.4 kmh S 12.0 mph19.3 kmh 29.60 in1002.4 mb 0.04 in1.0 mm 0.00 in0.0 mm 0.20 in5.1 mm
12:50 PM 58.6°F14.8°C 56.0°F13.3°C 91% 4.0 mph SSE6.4 kmh SSE 14.0 mph22.5 kmh 29.59 in1002.0 mb 0.03 in0.8 mm 0.00 in0.0 mm 0.20 in5.1 mm
12:55 PM 58.5°F14.7°C 55.9°F13.3°C 91% 6.0 mph S9.7 kmh S 13.0 mph20.9 kmh 29.59 in1002.0 mb 0.04 in1.0 mm 0.12 in3.0 mm 0.21 in5.3 mm
01:00 PM 58.4°F14.7°C 55.8°F13.2°C 91% 7.0 mph S11.3 kmh S 11.0 mph17.7 kmh 29.57 in1001.4 mb 0.04 in1.0 mm 0.00 in0.0 mm 0.21 in5.3 mm
01:05 PM 58.4°F14.7°C 56.1°F13.4°C 92% 9.0 mph S14.5 kmh S 11.0 mph17.7 kmh 29.57 in1001.4 mb 0.04 in1.0 mm 0.00 in0.0 mm 0.21 in5.3 mm
01:10 PM 58.3°F14.6°C 56.0°F13.3°C 92% 9.0 mph SSW14.5 kmh SSW 10.0 mph16.1 kmh 29.57 in1001.4 mb 0.04 in1.0 mm 0.00 in0.0 mm 0.21 in5.3 mm
01:14 PM 58.3°F14.6°C 56.0°F13.3°C 92% 8.0 mph SSW12.9 kmh SSW 9.0 mph14.5 kmh 29.57 in1001.4 mb 0.04 in1.0 mm 0.00 in0.0 mm 0.21 in5.3 mm
01:20 PM 58.3°F14.6°C 56.0°F13.3°C 92% 5.0 mph S8.0 kmh S 11.0 mph17.7 kmh 29.56 in1001.0 mb 0.04 in1.0 mm 0.00 in0.0 mm 0.21 in5.3 mm
01:24 PM 58.7°F14.8°C 56.4°F13.6°C 92% 6.0 mph S9.7 kmh S 9.0 mph14.5 kmh 29.55 in1000.7 mb 0.04 in1.0 mm 0.00 in0.0 mm 0.21 in5.3 mm
01:30 PM 59.4°F15.2°C 57.1°F13.9°C 92% 9.0 mph SSE14.5 kmh SSE 9.0 mph14.5 kmh 29.55 in1000.7 mb 0.04 in1.0 mm 0.00 in0.0 mm 0.21 in5.3 mm
01:35 PM 59.4°F15.2°C 57.1°F13.9°C 92% 9.0 mph SSE14.5 kmh SSE 12.0 mph19.3 kmh 29.55 in1000.7 mb 0.05 in1.3 mm 0.12 in3.0 mm 0.22 in5.6 mm
01:40 PM 59.3°F15.2°C 57.0°F13.9°C 92% 12.0 mph S19.3 kmh S 12.0 mph19.3 kmh 29.53 in1000.0 mb 0.04 in1.0 mm 0.00 in0.0 mm 0.22 in5.6 mm
01:44 PM 59.3°F15.2°C 57.0°F13.9°C 92% 3.0 mph SE4.8 kmh SE 14.0 mph22.5 kmh 29.55 in1000.7 mb 0.05 in1.3 mm 0.15 in3.8 mm 0.23 in5.8 mm
01:50 PM 59.5°F15.3°C 57.2°F14.0°C 92% 4.0 mph S6.4 kmh S 10.0 mph16.1 kmh 29.56 in1001.0 mb 0.05 in1.3 mm 0.00 in0.0 mm 0.23 in5.8 mm
01:55 PM 59.7°F15.4°C 57.4°F14.1°C 92% 2.0 mph SW3.2 kmh SW 8.0 mph12.9 kmh 29.56 in1001.0 mb 0.05 in1.3 mm 0.00 in0.0 mm 0.23 in5.8 mm
02:00 PM 59.8°F15.4°C 57.5°F14.2°C 92% 4.0 mph WSW6.4 kmh WSW 13.0 mph20.9 kmh 29.56 in1001.0 mb 0.06 in1.5 mm 0.01 in0.3 mm 0.24 in6.1 mm
02:05 PM 59.9°F15.5°C 57.6°F14.2°C 92% 5.0 mph WSW8.0 kmh WSW 11.0 mph17.7 kmh 29.55 in1000.7 mb 0.06 in1.5 mm 0.00 in0.0 mm 0.24 in6.1 mm
02:10 PM 60.1°F15.6°C 57.8°F14.3°C 92% 5.0 mph SSW8.0 kmh SSW 7.0 mph11.3 kmh 29.54 in1000.3 mb 0.07 in1.8 mm 0.12 in3.0 mm 0.25 in6.4 mm
02:15 PM 60.3°F15.7°C 58.0°F14.4°C 92% 4.0 mph S6.4 kmh S 8.0 mph12.9 kmh 29.53 in1000.0 mb 0.06 in1.5 mm 0.00 in0.0 mm 0.25 in6.4 mm
02:19 PM 60.6°F15.9°C 58.3°F14.6°C 92% 12.0 mph SSE19.3 kmh SSE 12.0 mph19.3 kmh 29.53 in1000.0 mb 0.07 in1.8 mm 0.15 in3.8 mm 0.26 in6.6 mm
02:24 PM 60.9°F16.1°C 58.6°F14.8°C 92% 5.0 mph SSW8.0 kmh SSW 11.0 mph17.7 kmh 29.52 in999.7 mb 0.06 in1.5 mm 0.00 in0.0 mm 0.26 in6.6 mm
02:30 PM 61.3°F16.3°C 59.0°F15.0°C 92% 6.0 mph S9.7 kmh S 11.0 mph17.7 kmh 29.52 in999.7 mb 0.07 in1.8 mm 0.10 in2.5 mm 0.27 in6.9 mm
02:35 PM 61.5°F16.4°C 59.2°F15.1°C 92% 5.0 mph SSW8.0 kmh SSW 15.0 mph24.1 kmh 29.52 in999.7 mb 0.07 in1.8 mm 0.00 in0.0 mm 0.27 in6.9 mm
02:40 PM 61.6°F16.4°C 59.0°F15.0°C 91% 9.0 mph S14.5 kmh S 11.0 mph17.7 kmh 29.50 in999.0 mb 0.07 in1.8 mm 0.00 in0.0 mm 0.27 in6.9 mm
02:45 PM 61.8°F16.6°C 59.2°F15.1°C 91% 4.0 mph S6.4 kmh S 10.0 mph16.1 kmh 29.50 in999.0 mb 0.07 in1.8 mm 0.00 in0.0 mm 0.27 in6.9 mm
02:50 PM 62.1°F16.7°C 59.8°F15.4°C 92% 6.0 mph SW9.7 kmh SW 10.0 mph16.1 kmh 29.50 in999.0 mb 0.07 in1.8 mm 0.00 in0.0 mm 0.27 in6.9 mm
02:54 PM 62.6°F17.0°C 59.9°F15.5°C 91% 10.0 mph S16.1 kmh S 10.0 mph16.1 kmh 29.51 in999.3 mb 0.06 in1.5 mm 0.00 in0.0 mm 0.27 in6.9 mm
02:59 PM 63.1°F17.3°C 60.4°F15.8°C 91% 6.0 mph S9.7 kmh S 13.0 mph20.9 kmh 29.51 in999.3 mb 0.07 in1.8 mm 0.12 in3.0 mm 0.28 in7.1 mm
03:05 PM 63.5°F17.5°C 60.8°F16.0°C 91% 6.0 mph SSW9.7 kmh SSW 10.0 mph16.1 kmh 29.50 in999.0 mb 0.06 in1.5 mm 0.00 in0.0 mm 0.28 in7.1 mm
03:10 PM 63.7°F17.6°C 60.7°F15.9°C 90% 6.0 mph S9.7 kmh S 12.0 mph19.3 kmh 29.50 in999.0 mb 0.06 in1.5 mm 0.00 in0.0 mm 0.28 in7.1 mm
03:14 PM 63.9°F17.7°C 60.9°F16.1°C 90% 7.0 mph S11.3 kmh S 11.0 mph17.7 kmh 29.48 in998.3 mb 0.06 in1.5 mm 0.00 in0.0 mm 0.28 in7.1 mm
03:20 PM 64.1°F17.8°C 61.1°F16.2°C 90% 8.0 mph S12.9 kmh S 16.0 mph25.7 kmh 29.48 in998.3 mb 0.05 in1.3 mm 0.00 in0.0 mm 0.28 in7.1 mm
03:25 PM 64.1°F17.8°C 61.1°F16.2°C 90% 6.0 mph SSW9.7 kmh SSW 12.0 mph19.3 kmh 29.50 in999.0 mb 0.06 in1.5 mm 0.12 in3.0 mm 0.29 in7.4 mm
03:29 PM 63.9°F17.7°C 61.2°F16.2°C 91% 7.0 mph S11.3 kmh S 11.0 mph17.7 kmh 29.50 in999.0 mb 0.05 in1.3 mm 0.00 in0.0 mm 0.29 in7.4 mm
03:35 PM 64.0°F17.8°C 61.3°F16.3°C 91% 6.0 mph S9.7 kmh S 11.0 mph17.7 kmh 29.48 in998.3 mb 0.05 in1.3 mm 0.00 in0.0 mm 0.29 in7.4 mm
03:40 PM 64.2°F17.9°C 61.5°F16.4°C 91% 3.0 mph SW4.8 kmh SW 10.0 mph16.1 kmh 29.49 in998.6 mb 0.05 in1.3 mm 0.00 in0.0 mm 0.29 in7.4 mm
03:44 PM 64.5°F18.1°C 61.8°F16.6°C 91% 6.0 mph SSE9.7 kmh SSE 11.0 mph17.7 kmh 29.48 in998.3 mb 0.05 in1.3 mm 0.00 in0.0 mm 0.29 in7.4 mm
03:50 PM 65.2°F18.4°C 62.5°F16.9°C 91% 6.0 mph SW9.7 kmh SW 11.0 mph17.7 kmh 29.48 in998.3 mb 0.05 in1.3 mm 0.00 in0.0 mm 0.29 in7.4 mm
03:55 PM 65.6°F18.7°C 62.6°F17.0°C 90% 10.0 mph SSW16.1 kmh SSW 19.0 mph30.6 kmh 29.47 in998.0 mb 0.05 in1.3 mm 0.00 in0.0 mm 0.29 in7.4 mm
04:00 PM 66.2°F19.0°C 62.9°F17.2°C 89% 11.0 mph SSE17.7 kmh SSE 20.0 mph32.2 kmh 29.46 in997.6 mb 0.05 in1.3 mm 0.00 in0.0 mm 0.29 in7.4 mm
04:05 PM 67.1°F19.5°C 62.8°F17.1°C 86% 11.0 mph S17.7 kmh S 14.0 mph22.5 kmh 29.46 in997.6 mb 0.04 in1.0 mm 0.00 in0.0 mm 0.29 in7.4 mm
04:09 PM 67.9°F19.9°C 62.9°F17.2°C 84% 7.0 mph SW11.3 kmh SW 16.0 mph25.7 kmh 29.45 in997.3 mb 0.04 in1.0 mm 0.00 in0.0 mm 0.29 in7.4 mm
04:15 PM 68.3°F20.2°C 62.9°F17.2°C 83% 8.0 mph S12.9 kmh S 16.0 mph25.7 kmh 29.45 in997.3 mb 0.05 in1.3 mm 0.10 in2.5 mm 0.30 in7.6 mm
04:20 PM 68.8°F20.4°C 62.7°F17.1°C 81% 8.0 mph SSW12.9 kmh SSW 21.0 mph33.8 kmh 29.45 in997.3 mb 0.04 in1.0 mm 0.00 in0.0 mm 0.30 in7.6 mm
04:24 PM 69.2°F20.7°C 62.1°F16.7°C 78% 5.0 mph S8.0 kmh S 16.0 mph25.7 kmh 29.45 in997.3 mb 0.05 in1.3 mm 0.15 in3.8 mm 0.31 in7.9 mm
04:30 PM 69.6°F20.9°C 61.7°F16.5°C 76% 13.0 mph SW20.9 kmh SW 19.0 mph30.6 kmh 29.45 in997.3 mb 0.04 in1.0 mm 0.00 in0.0 mm 0.31 in7.9 mm
04:35 PM 70.0°F21.1°C 60.6°F15.9°C 72% 12.0 mph SSW19.3 kmh SSW 16.0 mph25.7 kmh 29.44 in997.0 mb 0.04 in1.0 mm 0.00 in0.0 mm 0.31 in7.9 mm
04:40 PM 70.4°F21.3°C 60.2°F15.7°C 70% 9.0 mph S14.5 kmh S 18.0 mph29.0 kmh 29.45 in997.3 mb 0.04 in1.0 mm 0.00 in0.0 mm 0.31 in7.9 mm
04:45 PM 70.9°F21.6°C 60.2°F15.7°C 69% 12.0 mph SW19.3 kmh SW 14.0 mph22.5 kmh 29.46 in997.6 mb 0.03 in0.8 mm 0.00 in0.0 mm 0.31 in7.9 mm
04:50 PM 71.4°F21.9°C 57.7°F14.3°C 62% 12.0 mph WSW19.3 kmh WSW 25.0 mph40.2 kmh 29.45 in997.3 mb 0.04 in1.0 mm 0.12 in3.0 mm 0.32 in8.1 mm
04:55 PM 72.1°F22.3°C 55.1°F12.8°C 55% 10.0 mph SSW16.1 kmh SSW 15.0 mph24.1 kmh 29.45 in997.3 mb 0.03 in0.8 mm 0.00 in0.0 mm 0.32 in8.1 mm
05:00 PM 72.6°F22.6°C 54.0°F12.2°C 52% 12.0 mph WSW19.3 kmh WSW 22.0 mph35.4 kmh 29.46 in997.6 mb 0.03 in0.8 mm 0.00 in0.0 mm 0.32 in8.1 mm
05:10 PM 0.0°F-17.8°C 0.0°F-17.8°C 0% Calm Calm -- 0.00 in0.0 mb 0.00 in0.0 mm 0.00 in0.0 mm 0.32 in8.1 mm
05:15 PM 0.0°F-17.8°C 0.0°F-17.8°C 0% Calm Calm -- 0.00 in0.0 mb 0.00 in0.0 mm 0.00 in0.0 mm 0.32 in8.1 mm
05:20 PM 0.0°F-17.8°C -19.1°F-28.4°C 39% 8.0 mph SSW12.9 kmh SSW 8.0 mph12.9 kmh 29.47 in998.0 mb 0.00 in0.0 mm 0.00 in0.0 mm 0.32 in8.1 mm
05:25 PM 73.1°F22.8°C 48.0°F8.9°C 41% 12.0 mph WSW19.3 kmh WSW 13.0 mph20.9 kmh 29.47 in998.0 mb 0.00 in0.0 mm 0.00 in0.0 mm 0.32 in8.1 mm
05:30 PM 73.0°F22.8°C 45.2°F7.3°C 37% 24.0 mph SW38.6 kmh SW 27.0 mph43.5 kmh 29.47 in998.0 mb 0.00 in0.0 mm 0.00 in0.0 mm 0.32 in8.1 mm
05:35 PM 72.9°F22.7°C 46.5°F8.1°C 39% 15.0 mph SW24.1 kmh SW 18.0 mph29.0 kmh 29.47 in998.0 mb 0.00 in0.0 mm 0.00 in0.0 mm 0.32 in8.1 mm
05:40 PM 72.9°F22.7°C 46.5°F8.1°C 39% 14.0 mph SW22.5 kmh SW 16.0 mph25.7 kmh 29.49 in998.6 mb 0.00 in0.0 mm 0.00 in0.0 mm 0.32 in8.1 mm
05:45 PM 72.4°F22.4°C 45.4°F7.4°C 38% 19.0 mph SW30.6 kmh SW 32.0 mph51.5 kmh 29.47 in998.0 mb 0.00 in0.0 mm 0.00 in0.0 mm 0.32 in8.1 mm
05:50 PM 72.2°F22.3°C 45.9°F7.7°C 39% 19.0 mph SW30.6 kmh SW 25.0 mph40.2 kmh 29.48 in998.3 mb 0.00 in0.0 mm 0.00 in0.0 mm 0.32 in8.1 mm
05:55 PM 72.0°F22.2°C 45.7°F7.6°C 39% 9.0 mph W14.5 kmh W 20.0 mph32.2 kmh 29.48 in998.3 mb 0.00 in0.0 mm 0.00 in0.0 mm 0.32 in8.1 mm
06:00 PM 71.6°F22.0°C 46.7°F8.2°C 41% 23.0 mph SSW37.0 kmh SSW 30.0 mph48.3 kmh 29.48 in998.3 mb 0.00 in0.0 mm 0.00 in0.0 mm 0.32 in8.1 mm
06:05 PM 0.0°F-17.8°C 0.0°F-17.8°C 0% Calm Calm -- 0.00 in0.0 mb 0.00 in0.0 mm 0.00 in0.0 mm 0.32 in8.1 mm
06:09 PM 0.0°F-17.8°C 0.0°F-17.8°C 0% Calm Calm -- 0.00 in0.0 mb 0.00 in0.0 mm 0.00 in0.0 mm 0.32 in8.1 mm
06:15 PM 0.0°F-17.8°C 0.0°F-17.8°C 0% Calm Calm -- 0.00 in0.0 mb 0.00 in0.0 mm 0.00 in0.0 mm 0.32 in8.1 mm
06:19 PM 70.9°F21.6°C 46.1°F7.8°C 41% 12.0 mph SSW19.3 kmh SSW 19.0 mph30.6 kmh 29.48 in998.3 mb 0.00 in0.0 mm 0.00 in0.0 mm 0.32 in8.1 mm
06:25 PM 70.8°F21.6°C 46.6°F8.1°C 42% 7.0 mph SW11.3 kmh SW 26.0 mph41.8 kmh 29.49 in998.6 mb 0.00 in0.0 mm 0.00 in0.0 mm 0.32 in8.1 mm
06:29 PM 70.7°F21.5°C 46.5°F8.1°C 42% 7.0 mph WNW11.3 kmh WNW 26.0 mph41.8 kmh 29.49 in998.6 mb 0.00 in0.0 mm 0.00 in0.0 mm 0.32 in8.1 mm
06:35 PM 70.5°F21.4°C 47.0°F8.3°C 43% 23.0 mph SSW37.0 kmh SSW 27.0 mph43.5 kmh 29.50 in999.0 mb 0.00 in0.0 mm 0.00 in0.0 mm 0.32 in8.1 mm
06:40 PM 70.3°F21.3°C 47.4°F8.6°C 44% 10.0 mph SW16.1 kmh SW 27.0 mph43.5 kmh 29.50 in999.0 mb 0.00 in0.0 mm 0.00 in0.0 mm 0.32 in8.1 mm
06:45 PM 70.0°F21.1°C 47.1°F8.4°C 44% 11.0 mph SW17.7 kmh SW 27.0 mph43.5 kmh 29.50 in999.0 mb 0.00 in0.0 mm 0.00 in0.0 mm 0.32 in8.1 mm
06:50 PM 69.8°F21.0°C 47.5°F8.6°C 45% 14.0 mph WSW22.5 kmh WSW 27.0 mph43.5 kmh 29.50 in999.0 mb 0.00 in0.0 mm 0.00 in0.0 mm 0.32 in8.1 mm
06:55 PM 69.5°F20.8°C 46.7°F8.2°C 44% 27.0 mph SW43.5 kmh SW 30.0 mph48.3 kmh 29.52 in999.7 mb 0.00 in0.0 mm 0.00 in0.0 mm 0.32 in8.1 mm
07:00 PM 69.2°F20.7°C 46.4°F8.0°C 44% 18.0 mph SW29.0 kmh SW 26.0 mph41.8 kmh 29.51 in999.3 mb 0.00 in0.0 mm 0.00 in0.0 mm 0.32 in8.1 mm
07:05 PM 68.8°F20.4°C 46.6°F8.1°C 45% 14.0 mph SSW22.5 kmh SSW 23.0 mph37.0 kmh 29.52 in999.7 mb 0.00 in0.0 mm 0.00 in0.0 mm 0.32 in8.1 mm
07:10 PM 68.4°F20.2°C 46.8°F8.2°C 46% 21.0 mph SW33.8 kmh SW 26.0 mph41.8 kmh 29.52 in999.7 mb 0.00 in0.0 mm 0.00 in0.0 mm 0.32 in8.1 mm
07:15 PM 68.3°F20.2°C 46.7°F8.2°C 46% 12.0 mph SSW19.3 kmh SSW 19.0 mph30.6 kmh 29.52 in999.7 mb 0.00 in0.0 mm 0.00 in0.0 mm 0.32 in8.1 mm
07:19 PM 68.1°F20.1°C 47.1°F8.4°C 47% 14.0 mph SW22.5 kmh SW 24.0 mph38.6 kmh 29.52 in999.7 mb 0.00 in0.0 mm 0.00 in0.0 mm 0.32 in8.1 mm
07:25 PM 67.9°F19.9°C 47.0°F8.3°C 47% 11.0 mph SW17.7 kmh SW 20.0 mph32.2 kmh 29.53 in1000.0 mb 0.00 in0.0 mm 0.00 in0.0 mm 0.32 in8.1 mm
07:30 PM 67.6°F19.8°C 47.8°F8.8°C 49% 3.0 mph WSW4.8 kmh WSW 16.0 mph25.7 kmh 29.54 in1000.3 mb 0.00 in0.0 mm 0.00 in0.0 mm 0.32 in8.1 mm
07:35 PM 66.7°F19.3°C 49.6°F9.8°C 54% 6.0 mph SW9.7 kmh SW 12.0 mph19.3 kmh 29.55 in1000.7 mb 0.00 in0.0 mm 0.00 in0.0 mm 0.32 in8.1 mm
07:40 PM 65.8°F18.8°C 49.7°F9.8°C 56% 2.0 mph WNW3.2 kmh WNW 8.0 mph12.9 kmh 29.55 in1000.7 mb 0.01 in0.3 mm 0.12 in3.0 mm 0.33 in8.4 mm
07:45 PM 64.8°F18.2°C 49.7°F9.8°C 58% 4.0 mph WNW6.4 kmh WNW 8.0 mph12.9 kmh 29.56 in1001.0 mb 0.01 in0.3 mm 0.00 in0.0 mm 0.33 in8.4 mm
07:49 PM 64.1°F17.8°C 49.5°F9.7°C 59% 3.0 mph W4.8 kmh W 9.0 mph14.5 kmh 29.57 in1001.4 mb 0.01 in0.3 mm 0.00 in0.0 mm 0.33 in8.4 mm
07:54 PM 63.5°F17.5°C 48.5°F9.2°C 58% 9.0 mph WSW14.5 kmh WSW 15.0 mph24.1 kmh 29.58 in1001.7 mb 0.01 in0.3 mm 0.00 in0.0 mm 0.33 in8.4 mm
07:59 PM 63.0°F17.2°C 47.5°F8.6°C 57% 3.0 mph WNW4.8 kmh WNW 16.0 mph25.7 kmh 29.58 in1001.7 mb 0.01 in0.3 mm 0.00 in0.0 mm 0.33 in8.4 mm
08:05 PM 62.5°F16.9°C 46.6°F8.1°C 56% 6.0 mph SW9.7 kmh SW 15.0 mph24.1 kmh 29.59 in1002.0 mb 0.01 in0.3 mm 0.00 in0.0 mm 0.33 in8.4 mm
08:10 PM 62.0°F16.7°C 45.7°F7.6°C 55% 15.0 mph SW24.1 kmh SW 15.0 mph24.1 kmh 29.59 in1002.0 mb 0.01 in0.3 mm 0.00 in0.0 mm 0.33 in8.4 mm
08:15 PM 61.5°F16.4°C 45.2°F7.3°C 55% 10.0 mph WSW16.1 kmh WSW 13.0 mph20.9 kmh 29.60 in1002.4 mb 0.01 in0.3 mm 0.00 in0.0 mm 0.33 in8.4 mm
08:20 PM 61.1°F16.2°C 44.4°F6.9°C 54% 5.0 mph WNW8.0 kmh WNW 11.0 mph17.7 kmh 29.60 in1002.4 mb 0.01 in0.3 mm 0.00 in0.0 mm 0.33 in8.4 mm
08:25 PM 60.8°F16.0°C 44.1°F6.7°C 54% 5.0 mph WSW8.0 kmh WSW 12.0 mph19.3 kmh 29.60 in1002.4 mb 0.01 in0.3 mm 0.00 in0.0 mm 0.33 in8.4 mm
08:30 PM 60.3°F15.7°C 44.1°F6.7°C 55% 10.0 mph SW16.1 kmh SW 15.0 mph24.1 kmh 29.61 in1002.7 mb 0.01 in0.3 mm 0.00 in0.0 mm 0.33 in8.4 mm
08:35 PM 60.2°F15.7°C 44.0°F6.7°C 55% 7.0 mph SW11.3 kmh SW 22.0 mph35.4 kmh 29.61 in1002.7 mb 0.01 in0.3 mm 0.00 in0.0 mm 0.33 in8.4 mm
08:39 PM 59.9°F15.5°C 43.7°F6.5°C 55% 8.0 mph WSW12.9 kmh WSW 8.0 mph12.9 kmh 29.62 in1003.0 mb 0.01 in0.3 mm 0.00 in0.0 mm 0.33 in8.4 mm
08:44 PM 59.8°F15.4°C 43.6°F6.4°C 55% 7.0 mph SW11.3 kmh SW 7.0 mph11.3 kmh 29.63 in1003.4 mb 0.00 in0.0 mm 0.00 in0.0 mm 0.33 in8.4 mm
08:50 PM 59.6°F15.3°C 43.4°F6.3°C 55% 5.0 mph SW8.0 kmh SW 11.0 mph17.7 kmh 29.63 in1003.4 mb 0.00 in0.0 mm 0.00 in0.0 mm 0.33 in8.4 mm
08:55 PM 59.3°F15.2°C 43.6°F6.4°C 56% 4.0 mph WSW6.4 kmh WSW 11.0 mph17.7 kmh 29.64 in1003.7 mb 0.00 in0.0 mm 0.00 in0.0 mm 0.33 in8.4 mm
09:00 PM 59.1°F15.1°C 43.4°F6.3°C 56% 6.0 mph SW9.7 kmh SW 12.0 mph19.3 kmh 29.65 in1004.1 mb 0.00 in0.0 mm 0.00 in0.0 mm 0.33 in8.4 mm
09:05 PM 58.9°F14.9°C 42.8°F6.0°C 55% 6.0 mph SW9.7 kmh SW 11.0 mph17.7 kmh 29.65 in1004.1 mb 0.01 in0.3 mm 0.12 in3.0 mm 0.34 in8.6 mm
09:10 PM 58.7°F14.8°C 42.6°F5.9°C 55% 6.0 mph NW9.7 kmh NW 17.0 mph27.4 kmh 29.66 in1004.4 mb 0.01 in0.3 mm 0.00 in0.0 mm 0.34 in8.6 mm
09:15 PM 58.4°F14.7°C 42.3°F5.7°C 55% 8.0 mph WSW12.9 kmh WSW 8.0 mph12.9 kmh 29.66 in1004.4 mb 0.01 in0.3 mm 0.00 in0.0 mm 0.34 in8.6 mm
09:20 PM 57.9°F14.4°C 41.9°F5.5°C 55% 3.0 mph W4.8 kmh W 15.0 mph24.1 kmh 29.67 in1004.7 mb 0.01 in0.3 mm 0.00 in0.0 mm 0.34 in8.6 mm
09:25 PM 57.5°F14.2°C 41.5°F5.3°C 55% 8.0 mph W12.9 kmh W 17.0 mph27.4 kmh 29.67 in1004.7 mb 0.01 in0.3 mm 0.00 in0.0 mm 0.34 in8.6 mm
09:30 PM 57.1°F13.9°C 41.6°F5.3°C 56% 5.0 mph SW8.0 kmh SW 10.0 mph16.1 kmh 29.68 in1005.1 mb 0.01 in0.3 mm 0.00 in0.0 mm 0.34 in8.6 mm
09:35 PM 56.8°F13.8°C 41.3°F5.2°C 56% 6.0 mph SW9.7 kmh SW 9.0 mph14.5 kmh 29.68 in1005.1 mb 0.01 in0.3 mm 0.00 in0.0 mm 0.34 in8.6 mm
09:39 PM 56.2°F13.4°C 39.8°F4.3°C 54% 11.0 mph WNW17.7 kmh WNW 22.0 mph35.4 kmh 29.69 in1005.4 mb 0.01 in0.3 mm 0.00 in0.0 mm 0.34 in8.6 mm
09:44 PM 55.7°F13.2°C 38.4°F3.6°C 52% 14.0 mph WSW22.5 kmh WSW 19.0 mph30.6 kmh 29.69 in1005.4 mb 0.01 in0.3 mm 0.00 in0.0 mm 0.34 in8.6 mm
09:50 PM 55.4°F13.0°C 38.1°F3.4°C 52% 21.0 mph SW33.8 kmh SW 21.0 mph33.8 kmh 29.69 in1005.4 mb 0.01 in0.3 mm 0.00 in0.0 mm 0.34 in8.6 mm
09:55 PM 55.2°F12.9°C 38.4°F3.6°C 53% 7.0 mph WSW11.3 kmh WSW 11.0 mph17.7 kmh 29.69 in1005.4 mb 0.01 in0.3 mm 0.00 in0.0 mm 0.34 in8.6 mm
10:00 PM 55.0°F12.8°C 37.7°F3.2°C 52% 8.0 mph WSW12.9 kmh WSW 23.0 mph37.0 kmh 29.70 in1005.8 mb 0.01 in0.3 mm 0.00 in0.0 mm 0.34 in8.6 mm
10:05 PM 54.7°F12.6°C 37.9°F3.3°C 53% 6.0 mph SW9.7 kmh SW 12.0 mph19.3 kmh 29.70 in1005.8 mb 0.00 in0.0 mm 0.00 in0.0 mm 0.34 in8.6 mm
10:10 PM 54.4°F12.4°C 38.1°F3.4°C 54% 7.0 mph SW11.3 kmh SW 12.0 mph19.3 kmh 29.71 in1006.1 mb 0.00 in0.0 mm 0.00 in0.0 mm 0.34 in8.6 mm
10:15 PM 54.2°F12.3°C 38.4°F3.6°C 55% 9.0 mph W14.5 kmh W 18.0 mph29.0 kmh 29.71 in1006.1 mb 0.00 in0.0 mm 0.00 in0.0 mm 0.34 in8.6 mm
10:19 PM 54.0°F12.2°C 38.2°F3.4°C 55% 1.0 mph W1.6 kmh W 11.0 mph17.7 kmh 29.71 in1006.1 mb 0.00 in0.0 mm 0.00 in0.0 mm 0.34 in8.6 mm
10:25 PM 53.8°F12.1°C 38.5°F3.6°C 56% 9.0 mph SW14.5 kmh SW 16.0 mph25.7 kmh 29.71 in1006.1 mb 0.00 in0.0 mm 0.00 in0.0 mm 0.34 in8.6 mm
10:30 PM 53.6°F12.0°C 37.8°F3.2°C 55% 9.0 mph SW14.5 kmh SW 16.0 mph25.7 kmh 29.72 in1006.4 mb 0.01 in0.3 mm 0.12 in3.0 mm 0.35 in8.9 mm
10:35 PM 53.4°F11.9°C 37.7°F3.2°C 55% 8.0 mph W12.9 kmh W 15.0 mph24.1 kmh 29.72 in1006.4 mb 0.01 in0.3 mm 0.00 in0.0 mm 0.35 in8.9 mm
10:40 PM 53.1°F11.7°C 37.4°F3.0°C 55% 12.0 mph SW19.3 kmh SW 17.0 mph27.4 kmh 29.72 in1006.4 mb 0.01 in0.3 mm 0.00 in0.0 mm 0.35 in8.9 mm
10:45 PM 53.0°F11.7°C 37.3°F2.9°C 55% 9.0 mph WSW14.5 kmh WSW 16.0 mph25.7 kmh 29.72 in1006.4 mb 0.01 in0.3 mm 0.00 in0.0 mm 0.35 in8.9 mm
10:50 PM 52.9°F11.6°C 37.2°F2.9°C 55% 5.0 mph SW8.0 kmh SW 13.0 mph20.9 kmh 29.73 in1006.8 mb 0.01 in0.3 mm 0.00 in0.0 mm 0.35 in8.9 mm
10:55 PM 52.7°F11.5°C 37.5°F3.1°C 56% 9.0 mph W14.5 kmh W 9.0 mph14.5 kmh 29.73 in1006.8 mb 0.01 in0.3 mm 0.00 in0.0 mm 0.35 in8.9 mm
11:00 PM 52.6°F11.4°C 37.4°F3.0°C 56% 7.0 mph WSW11.3 kmh WSW 18.0 mph29.0 kmh 29.73 in1006.8 mb 0.01 in0.3 mm 0.00 in0.0 mm 0.35 in8.9 mm
11:05 PM 52.3°F11.3°C 37.5°F3.1°C 57% 6.0 mph SW9.7 kmh SW 6.0 mph9.7 kmh 29.74 in1007.1 mb 0.01 in0.3 mm 0.00 in0.0 mm 0.35 in8.9 mm
11:10 PM 51.9°F11.1°C 37.6°F3.1°C 58% 4.0 mph WSW6.4 kmh WSW 13.0 mph20.9 kmh 29.74 in1007.1 mb 0.01 in0.3 mm 0.00 in0.0 mm 0.35 in8.9 mm
11:15 PM 51.8°F11.0°C 37.5°F3.1°C 58% 4.0 mph WSW6.4 kmh WSW 8.0 mph12.9 kmh 29.74 in1007.1 mb 0.01 in0.3 mm 0.00 in0.0 mm 0.35 in8.9 mm
11:20 PM 51.6°F10.9°C 37.8°F3.2°C 59% 12.0 mph SW19.3 kmh SW 17.0 mph27.4 kmh 29.74 in1007.1 mb 0.01 in0.3 mm 0.00 in0.0 mm 0.35 in8.9 mm
11:24 PM 51.6°F10.9°C 37.3°F2.9°C 58% 10.0 mph SSE16.1 kmh SSE 14.0 mph22.5 kmh 29.75 in1007.5 mb 0.01 in0.3 mm 0.00 in0.0 mm 0.35 in8.9 mm
11:30 PM 51.5°F10.8°C 37.2°F2.9°C 58% 9.0 mph SSW14.5 kmh SSW 11.0 mph17.7 kmh 29.75 in1007.5 mb 0.01 in0.3 mm 0.00 in0.0 mm 0.35 in8.9 mm
11:35 PM 51.3°F10.7°C 37.0°F2.8°C 58% 22.0 mph SW35.4 kmh SW 22.0 mph35.4 kmh 29.75 in1007.5 mb 0.00 in0.0 mm 0.00 in0.0 mm 0.35 in8.9 mm
11:40 PM 51.3°F10.7°C 37.0°F2.8°C 58% 15.0 mph SW24.1 kmh SW 17.0 mph27.4 kmh 29.75 in1007.5 mb 0.00 in0.0 mm 0.00 in0.0 mm 0.35 in8.9 mm
11:45 PM 50.9°F10.5°C 37.1°F2.8°C 59% 11.0 mph WSW17.7 kmh WSW 11.0 mph17.7 kmh 29.75 in1007.5 mb 0.00 in0.0 mm 0.00 in0.0 mm 0.35 in8.9 mm
11:50 PM 50.8°F10.4°C 37.0°F2.8°C 59% 13.0 mph WNW20.9 kmh WNW 21.0 mph33.8 kmh 29.75 in1007.5 mb 0.00 in0.0 mm 0.00 in0.0 mm 0.35 in8.9 mm
11:55 PM 50.5°F10.3°C 36.7°F2.6°C 59% 17.0 mph WSW27.4 kmh WSW 20.0 mph32.2 kmh 29.76 in1007.8 mb 0.00 in0.0 mm 0.00 in0.0 mm 0.35 in8.9 mm